Time;durP1;ratioP1;P1;durP2;ratioP2;P2;SDS_P1;SDS_P2;PMS_P1;PMS_P2;Temp;Humidity;BMP_temperature;BMP_pressure;BME280_temperature;BME280_humidity;BME280_pressure;Samples;Min_cycle;Max_cycle;Signal;HPM_P1;HPM_P2
2022/01/23 00:02:10;;;;;;;6.78;2.92;;;;;;;-2.82;70.43;101240.94;5115532;28;20036;-71
2022/01/23 00:04:40;;;;;;;8.30;2.80;;;;;;;-2.77;70.13;101236.66;5115231;28;20093;-70
2022/01/23 00:07:12;;;;;;;7.55;2.95;;;;;;;-2.83;69.85;101241.78;5114725;28;20489;-71
2022/01/23 00:09:41;;;;;;;6.65;2.70;;;;;;;-2.81;70.21;101247.91;5114724;28;20052;-71
2022/01/23 00:12:15;;;;;;;5.75;2.50;;;;;;;-2.89;70.43;101259.16;5114940;28;20042;-72
2022/01/23 00:17:33;;;;;;;5.25;2.67;;;;;;;-2.97;71.31;101260.81;5114238;28;20070;-71
2022/01/23 00:20:05;;;;;;;9.45;2.97;;;;;;;-2.96;71.75;101252.13;5114731;28;20035;-71
2022/01/23 00:22:41;;;;;;;6.95;3.05;;;;;;;-2.95;71.27;101256.47;5114234;28;20089;-71
2022/01/23 00:30:46;;;;;;;7.22;2.90;;;;;;;-2.95;71.03;101260.81;5114025;28;20052;-71
2022/01/23 00:33:16;;;;;;;7.97;3.15;;;;;;;-3.03;71.65;101267.69;5114601;28;20040;-71
2022/01/23 00:35:46;;;;;;;5.38;2.80;;;;;;;-3.06;71.55;101241.56;5113665;28;20438;-71
2022/01/23 00:38:16;;;;;;;6.68;2.38;;;;;;;-2.97;71.03;101263.44;5114242;28;20141;-71
2022/01/23 00:40:47;;;;;;;6.05;2.63;;;;;;;-3.02;71.37;101259.88;5113981;28;20058;-71
2022/01/23 00:43:26;;;;;;;7.20;2.88;;;;;;;-3.03;71.68;101268.56;5114507;28;20067;-70
2022/01/23 00:46:07;;;;;;;5.45;2.65;;;;;;;-2.99;71.23;101275.59;5114032;28;20050;-71
2022/01/23 00:48:39;;;;;;;7.32;2.90;;;;;;;-3.06;71.26;101263.31;5114008;28;20074;-71
2022/01/23 00:51:07;;;;;;;4.75;2.40;;;;;;;-3.12;71.56;101286.72;5114034;28;20048;-71
2022/01/23 00:53:36;;;;;;;5.93;2.65;;;;;;;-3.09;71.38;101281.53;5113569;28;20066;-71
2022/01/23 00:56:04;;;;;;;7.90;3.25;;;;;;;-2.97;70.66;101284.31;5113793;28;20135;-71
2022/01/23 00:58:34;;;;;;;6.28;2.50;;;;;;;-3.12;72.01;101280.63;5113785;28;20472;-70
2022/01/23 01:01:02;;;;;;;6.93;3.00;;;;;;;-3.13;71.78;101282.38;5095550;28;20116;-71
2022/01/23 01:03:33;;;;;;;5.88;1.88;;;;;;;-3.10;72.13;101277.16;5113631;28;20050;-71
2022/01/23 01:06:01;;;;;;;6.80;3.05;;;;;;;-3.13;71.89;101277.16;5113655;28;20086;-70
2022/01/23 01:08:30;;;;;;;7.93;3.00;;;;;;;-3.14;71.89;101258.88;5113757;28;20050;-71
2022/01/23 01:11:14;;;;;;;5.85;2.75;;;;;;;-3.18;72.68;101257.97;5113856;28;20078;-70
2022/01/23 01:14:06;;;;;;;7.88;3.05;;;;;;;-3.19;72.75;101253.56;5113595;28;20043;-69
2022/01/23 01:16:52;;;;;;;5.85;2.72;;;;;;;-3.25;72.52;101250.91;5113626;28;20043;-68
2022/01/23 01:30:55;;;;;;;6.30;2.40;;;;;;;-3.07;71.53;101240.69;5113129;28;20054;-70
2022/01/23 01:33:34;;;;;;;5.25;2.08;;;;;;;-3.05;71.10;101243.31;5113572;28;20039;-70
2022/01/23 01:36:17;;;;;;;6.28;2.30;;;;;;;-3.08;71.47;101233.72;5113741;28;20055;-71
2022/01/23 01:38:45;;;;;;;5.70;2.20;;;;;;;-3.12;71.44;101231.91;5113365;28;20040;-71
2022/01/23 01:41:15;;;;;;;5.10;2.70;;;;;;;-3.10;71.82;101234.53;5113505;28;20050;-71
2022/01/23 01:43:43;;;;;;;4.75;2.22;;;;;;;-3.12;71.85;101234.53;5094887;28;20484;-71
2022/01/23 01:46:13;;;;;;;5.75;2.15;;;;;;;-3.18;72.54;101239.69;5113470;28;20485;-71
2022/01/23 01:48:41;;;;;;;5.90;2.83;;;;;;;-3.13;71.88;101258.00;5116765;28;20489;-72
2022/01/23 01:51:14;;;;;;;4.60;2.13;;;;;;;-3.10;71.82;101261.50;5117577;28;20059;-72
2022/01/23 01:53:47;;;;;;;6.97;3.07;;;;;;;-3.15;72.11;101254.50;5117339;28;20081;-71
2022/01/23 01:56:16;;;;;;;5.18;2.55;;;;;;;-3.14;72.33;101249.31;5117744;28;20052;-71
2022/01/23 01:59:10;;;;;;;4.95;2.45;;;;;;;-3.12;72.30;101252.78;5117209;28;20548;-71
2022/01/23 02:09:58;;;;;;;6.20;3.00;;;;;;;-3.17;72.94;101241.44;5117392;28;20053;-71
2022/01/23 02:15:38;;;;;;;6.20;2.75;;;;;;;-3.17;73.19;101231.00;5117505;28;20388;-71
2022/01/23 02:18:22;;;;;;;4.60;2.35;;;;;;;-3.19;73.14;101230.09;5116766;28;20048;-71
2022/01/23 02:51:46;;;;;;;5.85;2.70;;;;;;;-3.00;72.22;101247.69;5116101;28;20048;-72
2022/01/23 02:57:05;;;;;;;6.55;2.90;;;;;;;-3.00;72.09;101246.84;5105874;28;20048;-72
2022/01/23 02:59:36;;;;;;;7.20;2.70;;;;;;;-2.95;71.93;101246.03;5115490;28;20373;-71
2022/01/23 03:02:12;;;;;;;7.25;2.72;;;;;;;-2.94;72.09;101253.00;5116533;28;20055;-72
2022/01/23 03:04:49;;;;;;;6.75;2.92;;;;;;;-2.93;71.79;101253.88;5115994;28;20105;-73
2022/01/23 03:07:36;;;;;;;6.20;2.85;;;;;;;-2.89;72.02;101251.34;5116030;28;20396;-73
2022/01/23 03:10:11;;;;;;;6.63;2.60;;;;;;;-2.88;71.54;101250.47;5116462;28;20046;-71
2022/01/23 03:15:44;;;;;;;5.88;2.95;;;;;;;-2.88;71.61;101246.97;5115891;28;20043;-70
2022/01/23 03:26:35;;;;;;;6.18;2.55;;;;;;;-2.81;71.25;101258.34;5115779;28;20400;-72
2022/01/23 03:29:20;;;;;;;5.00;2.60;;;;;;;-2.74;70.79;101254.94;5115899;28;20142;-71
2022/01/23 03:32:18;;;;;;;7.90;2.88;;;;;;;-2.77;71.03;101260.16;5115020;28;20056;-71
2022/01/23 03:34:48;;;;;;;5.32;2.70;;;;;;;-2.80;71.19;101249.66;5115186;28;20139;-72
2022/01/23 03:37:17;;;;;;;8.18;3.25;;;;;;;-2.80;71.43;101239.19;5115667;28;20078;-72
2022/01/23 03:39:45;;;;;;;6.82;2.65;;;;;;;-2.76;70.71;101241.00;5115010;28;20050;-71
2022/01/23 03:42:15;;;;;;;6.10;2.65;;;;;;;-2.72;70.67;101240.16;5115528;28;20085;-72
2022/01/23 03:44:56;;;;;;;5.95;2.92;;;;;;;-2.80;71.07;101232.25;5115200;28;20131;-71
2022/01/23 03:47:36;;;;;;;5.78;2.95;;;;;;;-2.76;70.88;101236.66;5115700;28;20043;-71
2022/01/23 03:50:05;;;;;;;5.57;2.53;;;;;;;-2.74;70.76;101234.94;5115687;28;20046;-71
2022/01/23 03:52:35;;;;;;;6.38;3.15;;;;;;;-2.83;71.61;101244.41;5115316;28;20047;-70
2022/01/23 03:55:06;;;;;;;8.85;3.15;;;;;;;-2.74;70.87;101232.31;5115024;28;20446;-71
2022/01/23 03:57:36;;;;;;;6.22;2.60;;;;;;;-2.81;71.47;101237.44;5115366;28;20043;-71
2022/01/23 04:00:06;;;;;;;6.18;2.50;;;;;;;-2.70;70.73;101223.66;5115455;28;20050;-71
2022/01/23 04:02:37;;;;;;;6.13;2.72;;;;;;;-2.75;71.20;101227.09;5115015;28;20131;-70
2022/01/23 04:05:06;;;;;;;7.72;2.97;;;;;;;-2.57;70.27;101237.69;5115167;28;20036;-71
2022/01/23 04:07:36;;;;;;;8.25;2.50;;;;;;;-2.71;70.70;101244.53;5115261;28;20431;-75
2022/01/23 04:10:07;;;;;;;5.22;2.72;;;;;;;-2.67;70.03;101246.31;5097036;28;20134;-73
2022/01/23 04:12:46;;;;;;;7.40;2.78;;;;;;;-2.61;71.09;101242.03;5114495;28;20084;-76
2022/01/23 04:15:22;;;;;;;5.35;2.47;;;;;;;-2.43;69.24;101243.03;5115098;28;20478;-73
2022/01/23 04:20:46;;;;;;;8.55;3.17;;;;;;;-2.47;68.04;101244.75;5114582;28;20043;-73
2022/01/23 04:34:28;;;;;;;5.72;2.63;;;;;;;-2.44;67.55;101260.44;5109308;28;20463;-71
2022/01/23 04:45:26;;;;;;;5.82;2.22;;;;;;;-2.09;64.92;101265.97;5114490;28;20043;-70
2022/01/23 04:59:38;;;;;;;6.45;2.50;;;;;;;-2.14;64.92;101264.19;5071313;28;20076;-71
2022/01/23 05:02:27;;;;;;;5.50;2.50;;;;;;;-2.28;65.66;101260.59;5102075;28;20056;-71
2022/01/23 05:04:55;;;;;;;6.55;2.58;;;;;;;-2.19;64.95;101265.91;5113964;28;20067;-72
2022/01/23 05:07:27;;;;;;;5.15;2.60;;;;;;;-2.21;64.62;101271.13;5113662;28;20051;-71
2022/01/23 05:09:55;;;;;;;4.70;2.53;;;;;;;-2.32;65.73;101273.66;5113698;28;20075;-73
2022/01/23 05:12:25;;;;;;;6.63;2.70;;;;;;;-2.24;65.01;101284.13;5114127;28;20385;-72
2022/01/23 05:14:53;;;;;;;7.18;2.72;;;;;;;-2.31;65.13;101284.97;5113981;28;20532;-71
2022/01/23 05:17:24;;;;;;;5.50;2.47;;;;;;;-2.19;64.86;101286.81;5113928;28;20035;-72
2022/01/23 05:19:53;;;;;;;4.68;2.17;;;;;;;-2.24;65.28;101293.72;5113564;28;20081;-72
2022/01/23 05:22:29;;;;;;;8.23;2.38;;;;;;;-2.19;64.71;101292.91;5113433;28;20130;-70
2022/01/23 05:25:03;;;;;;;5.15;2.50;;;;;;;-2.16;64.13;101297.28;5113479;28;20046;-72
2022/01/23 05:27:32;;;;;;;4.43;2.40;;;;;;;-2.19;64.17;101302.50;5113773;28;20504;-72
2022/01/23 05:30:01;;;;;;;6.10;2.28;;;;;;;-2.23;64.81;101304.19;5112964;28;20483;-72
2022/01/23 05:32:37;;;;;;;4.50;1.92;;;;;;;-2.17;64.47;101305.97;5113861;28;20068;-72
2022/01/23 05:35:08;;;;;;;6.20;2.47;;;;;;;-2.13;63.90;101302.53;5113452;28;20070;-72
2022/01/23 05:37:37;;;;;;;6.55;2.20;;;;;;;-2.17;64.19;101299.03;5113310;28;20039;-71
2022/01/23 05:40:08;;;;;;;6.10;2.42;;;;;;;-2.27;64.95;101310.25;5113245;28;20127;-70
2022/01/23 05:42:37;;;;;;;7.13;2.55;;;;;;;-2.32;64.99;101307.63;5113340;28;20043;-72
2022/01/23 05:45:06;;;;;;;7.28;2.55;;;;;;;-2.19;64.39;101320.78;5113041;28;20060;-71
2022/01/23 05:47:36;;;;;;;5.95;2.05;;;;;;;-2.18;64.37;101326.03;5113183;28;20071;-71
2022/01/23 05:50:06;;;;;;;9.48;3.22;;;;;;;-2.21;64.32;101323.41;5113202;28;20039;-71
2022/01/23 05:52:35;;;;;;;5.40;2.05;;;;;;;-2.26;64.60;101317.22;5113825;28;20092;-71
2022/01/23 05:55:05;;;;;;;5.35;2.20;;;;;;;-2.25;64.73;101320.72;5113100;28;20639;-72
2022/01/23 05:57:33;;;;;;;5.60;2.70;;;;;;;-2.34;64.70;101317.16;5113443;28;20509;-71
2022/01/23 06:00:02;;;;;;;6.45;2.70;;;;;;;-2.25;64.48;101323.34;5113288;28;20035;-72
2022/01/23 06:02:30;;;;;;;5.55;2.60;;;;;;;-2.24;64.60;101315.50;5113271;28;20434;-71
2022/01/23 06:04:59;;;;;;;9.05;2.70;;;;;;;-2.25;64.50;101324.22;5095107;28;20136;-70
2022/01/23 06:07:28;;;;;;;7.85;3.00;;;;;;;-2.27;64.32;101325.06;5113208;28;20063;-71
2022/01/23 06:09:56;;;;;;;6.28;2.33;;;;;;;-2.26;64.52;101329.44;5112898;28;20050;-73
2022/01/23 06:12:24;;;;;;;8.32;2.70;;;;;;;-2.19;64.47;101324.28;5112932;28;20069;-72
2022/01/23 06:14:52;;;;;;;8.10;3.22;;;;;;;-2.22;64.96;101326.88;5113023;28;20524;-71
2022/01/23 06:17:21;;;;;;;7.40;3.30;;;;;;;-2.22;64.59;101333.81;5112926;28;20126;-70
2022/01/23 06:19:49;;;;;;;6.53;3.00;;;;;;;-2.11;64.28;101338.28;5112762;28;20096;-72
2022/01/23 06:22:22;;;;;;;5.40;2.78;;;;;;;-2.11;63.86;101337.41;5113182;28;20043;-72
2022/01/23 06:24:50;;;;;;;6.60;2.75;;;;;;;-2.17;64.37;101348.69;5112909;28;20043;-72
2022/01/23 06:27:19;;;;;;;7.55;2.63;;;;;;;-2.20;64.92;101347.78;5113069;28;20093;-72
2022/01/23 06:29:47;;;;;;;8.77;2.88;;;;;;;-2.24;65.05;101356.44;5112508;28;20044;-73
2022/01/23 06:32:16;;;;;;;11.32;3.40;;;;;;;-2.16;64.89;101362.63;5113181;28;20051;-71
2022/01/23 06:34:45;;;;;;;8.38;2.78;;;;;;;-2.10;65.05;101362.69;5114845;28;20048;-72
2022/01/23 06:37:15;;;;;;;6.13;2.55;;;;;;;-2.14;65.25;101360.91;5116501;28;20075;-70
2022/01/23 06:39:45;;;;;;;9.00;2.80;;;;;;;-1.93;63.69;101361.13;5098853;28;20134;-72
2022/01/23 06:42:13;;;;;;;6.15;2.42;;;;;;;-1.95;64.53;101365.44;5116530;28;20040;-69
2022/01/23 06:44:41;;;;;;;9.40;3.10;;;;;;;-1.99;64.79;101368.03;5116784;28;20036;-72
2022/01/23 06:47:10;;;;;;;7.22;3.03;;;;;;;-1.98;65.11;101364.53;5116469;28;20040;-72
2022/01/23 06:49:38;;;;;;;7.72;2.67;;;;;;;-1.62;62.34;101370.06;5116135;28;20045;-72
2022/01/23 06:52:07;;;;;;;5.55;2.40;;;;;;;-1.46;62.02;101371.03;5116063;28;20032;-71
2022/01/23 06:54:35;;;;;;;7.97;2.85;;;;;;;-1.50;62.06;101374.50;5116148;28;20055;-72
2022/01/23 06:57:05;;;;;;;9.85;2.63;;;;;;;-1.58;62.89;101373.56;5115799;28;20126;-72
2022/01/23 06:59:34;;;;;;;8.95;3.30;;;;;;;-1.66;62.74;101372.63;5116456;28;20481;-72
2022/01/23 07:02:04;;;;;;;8.80;3.08;;;;;;;-1.66;62.59;101368.28;5115652;28;20040;-72
2022/01/23 07:04:32;;;;;;;7.30;2.97;;;;;;;-1.45;62.13;101368.44;5116043;28;20039;-73
2022/01/23 07:07:00;;;;;;;6.32;2.85;;;;;;;-1.47;61.77;101369.28;5115636;28;20096;-73
2022/01/23 07:09:29;;;;;;;7.88;3.08;;;;;;;-1.50;61.79;101374.50;5115896;28;20106;-73
2022/01/23 07:11:57;;;;;;;8.45;3.50;;;;;;;-1.51;62.11;101375.38;5116055;28;20050;-71
2022/01/23 07:14:27;;;;;;;6.47;3.10;;;;;;;-1.45;61.28;101370.16;5116111;28;20130;-71
2022/01/23 07:16:55;;;;;;;6.57;2.72;;;;;;;-1.50;61.54;101370.16;5115301;28;20454;-72
2022/01/23 07:19:26;;;;;;;8.50;2.80;;;;;;;-1.41;60.99;101369.34;5115727;28;20043;-71
2022/01/23 07:21:54;;;;;;;6.28;2.92;;;;;;;-1.35;61.07;101371.09;5115612;28;20415;-71
2022/01/23 07:24:23;;;;;;;8.70;3.00;;;;;;;-1.38;61.41;101369.34;5115892;28;20438;-70
2022/01/23 07:26:51;;;;;;;10.02;3.20;;;;;;;-1.44;61.58;101364.09;5115540;28;20036;-72
2022/01/23 07:29:20;;;;;;;6.07;3.00;;;;;;;-1.36;61.28;101366.72;5115641;28;20071;-70
2022/01/23 07:31:58;;;;;;;10.68;3.05;;;;;;;-1.37;60.91;101365.84;5115850;28;20051;-69
2022/01/23 07:34:27;;;;;;;8.75;2.97;;;;;;;-1.32;60.83;101366.78;5097508;28;20061;-69
2022/01/23 07:36:55;;;;;;;6.65;2.72;;;;;;;-1.33;60.99;101365.03;5115393;28;20040;-72
2022/01/23 07:39:25;;;;;;;7.03;2.83;;;;;;;-1.27;60.60;101380.75;5115560;28;20050;-72
2022/01/23 07:41:54;;;;;;;9.98;3.30;;;;;;;-1.21;61.13;101382.53;5115615;28;20052;-73
2022/01/23 07:44:24;;;;;;;6.57;3.05;;;;;;;-1.32;60.92;101374.63;5115664;28;20434;-72
2022/01/23 07:46:54;;;;;;;7.95;3.40;;;;;;;-1.20;60.74;101379.94;5114658;28;20443;-75
2022/01/23 07:49:23;;;;;;;7.20;3.03;;;;;;;-1.22;60.86;101384.28;5115272;28;20035;-72
2022/01/23 07:51:51;;;;;;;6.35;2.80;;;;;;;-1.30;60.45;101382.47;5115384;28;20093;-72
2022/01/23 07:54:20;;;;;;;5.85;2.72;;;;;;;-1.27;60.39;101383.38;5115169;28;20036;-70
2022/01/23 07:56:49;;;;;;;6.47;2.95;;;;;;;-1.17;60.68;101382.56;5115334;28;20123;-72
2022/01/23 07:59:17;;;;;;;6.38;2.83;;;;;;;-1.24;60.36;101379.91;5114935;28;20085;-72
2022/01/23 08:01:45;;;;;;;6.22;2.80;;;;;;;-1.28;60.17;101379.00;5114996;28;20039;-71
2022/01/23 08:04:15;;;;;;;8.18;2.97;;;;;;;-1.10;59.91;101380.84;5114838;28;20040;-70
2022/01/23 08:06:46;;;;;;;6.50;2.85;;;;;;;-1.18;59.44;101388.66;5114709;28;20503;-72
2022/01/23 08:09:15;;;;;;;6.10;2.67;;;;;;;-1.04;59.84;101387.88;5096970;28;20055;-74
2022/01/23 08:11:44;;;;;;;7.20;2.83;;;;;;;-1.06;59.55;101386.97;5115227;28;20039;-73
2022/01/23 08:14:12;;;;;;;8.75;2.90;;;;;;;-1.05;59.54;101391.38;5114561;28;20043;-71
2022/01/23 08:16:41;;;;;;;6.97;3.13;;;;;;;-1.04;59.03;101395.75;5115010;28;20119;-72
2022/01/23 08:19:09;;;;;;;6.05;2.75;;;;;;;-1.00;59.18;101400.09;5114535;28;20050;-72
2022/01/23 08:21:38;;;;;;;7.65;3.13;;;;;;;-1.01;59.63;101400.97;5114936;28;20044;-75
2022/01/23 08:24:07;;;;;;;10.80;3.38;;;;;;;-0.91;59.25;101393.19;5114427;28;20079;-76
2022/01/23 08:26:35;;;;;;;7.57;2.90;;;;;;;-0.75;58.86;101407.22;5114581;28;20100;-71
2022/01/23 08:29:04;;;;;;;8.35;3.30;;;;;;;-0.77;58.68;101411.59;5113898;28;20039;-69
2022/01/23 08:31:35;;;;;;;11.00;3.30;;;;;;;-0.88;59.05;101408.91;5116860;28;20063;-70
2022/01/23 08:34:03;;;;;;;8.05;3.30;;;;;;;-0.69;58.25;101425.56;5113844;28;20100;-70
2022/01/23 08:36:33;;;;;;;10.13;3.25;;;;;;;-0.68;57.92;101427.31;5114565;28;20063;-73
2022/01/23 08:39:03;;;;;;;7.18;3.05;;;;;;;-0.71;57.30;101405.50;5114136;28;20039;-73
2022/01/23 08:44:17;;;;;;;8.27;2.83;;;;;;;-0.70;57.79;101407.22;5113979;28;20972;-71
2022/01/23 08:46:46;;;;;;;5.78;2.70;;;;;;;-0.76;57.82;101400.25;5114274;28;20067;-67
2022/01/23 08:49:16;;;;;;;7.70;3.80;;;;;;;-0.67;57.65;101405.53;5114174;28;20393;-68
2022/01/23 08:51:45;;;;;;;5.68;2.33;;;;;;;-0.70;57.43;101402.00;5114042;28;20039;-68
2022/01/23 08:54:15;;;;;;;6.60;2.58;;;;;;;-0.70;57.59;101423.84;5113888;28;20044;-69
2022/01/23 08:56:44;;;;;;;11.57;3.13;;;;;;;-0.72;57.66;101422.97;5113521;28;20046;-68
2022/01/23 08:59:13;;;;;;;6.40;3.33;;;;;;;-0.69;57.20;101425.56;5114007;28;20043;-67
2022/01/23 09:01:41;;;;;;;6.03;2.78;;;;;;;-0.65;57.35;101427.38;5114395;28;20035;-68
2022/01/23 09:04:12;;;;;;;5.40;2.38;;;;;;;-0.56;56.89;101429.16;5113574;28;20043;-68
2022/01/23 09:06:40;;;;;;;7.85;2.88;;;;;;;-0.52;57.02;101419.53;5114263;28;20469;-67
2022/01/23 09:09:15;;;;;;;8.63;3.33;;;;;;;-0.41;56.96;101428.31;5113579;28;20089;-69
2022/01/23 09:11:54;;;;;;;9.27;2.92;;;;;;;-0.39;57.06;101429.19;5114093;28;20036;-69
2022/01/23 09:14:22;;;;;;;9.60;3.05;;;;;;;-0.29;56.77;101428.34;5113707;28;20424;-69
2022/01/23 09:16:52;;;;;;;7.93;3.22;;;;;;;-0.33;56.78;101430.09;5113923;28;20134;-69
2022/01/23 09:19:22;;;;;;;9.23;3.13;;;;;;;-0.25;56.32;101427.50;5113391;28;20089;-69
2022/01/23 09:21:51;;;;;;;8.52;3.30;;;;;;;-0.23;55.71;101425.75;5113493;28;20039;-69
2022/01/23 09:24:23;;;;;;;9.38;3.15;;;;;;;-0.23;56.12;101436.25;5113541;28;20043;-69
2022/01/23 09:26:55;;;;;;;8.63;2.92;;;;;;;-0.13;55.95;101430.16;5110962;28;20067;-73
2022/01/23 09:29:31;;;;;;;7.22;3.17;;;;;;;-0.22;56.09;101429.25;5111935;28;20040;-72
2022/01/23 09:32:01;;;;;;;11.23;3.60;;;;;;;-0.11;55.88;101431.00;5112031;28;20523;-72
2022/01/23 09:34:32;;;;;;;10.02;2.90;;;;;;;-0.14;55.65;101423.16;5112443;28;20447;-72
2022/01/23 09:37:05;;;;;;;7.80;3.33;;;;;;;-0.10;55.45;101421.41;5112115;28;20048;-72
2022/01/23 09:39:35;;;;;;;6.50;2.85;;;;;;;-0.07;54.88;101432.78;5111292;28;20063;-73
2022/01/23 09:42:10;;;;;;;9.48;3.38;;;;;;;0.03;54.99;101417.94;5112043;28;20074;-73
2022/01/23 09:44:45;;;;;;;6.82;2.75;;;;;;;0.06;54.77;101417.06;5111975;28;20043;-68
2022/01/23 09:47:15;;;;;;;7.80;3.20;;;;;;;0.02;54.83;101405.72;5112361;28;20114;-72
2022/01/23 09:49:45;;;;;;;7.20;3.33;;;;;;;0.02;55.17;101408.31;5111499;28;20044;-73
2022/01/23 09:52:15;;;;;;;7.30;3.33;;;;;;;0.04;54.84;101418.81;5112055;28;20048;-70
2022/01/23 09:54:52;;;;;;;6.72;3.00;;;;;;;0.05;54.53;101415.31;5093697;28;20055;-74
2022/01/23 09:57:24;;;;;;;8.15;2.72;;;;;;;0.13;54.69;101416.22;5112219;28;20130;-71
2022/01/23 09:59:54;;;;;;;7.25;3.03;;;;;;;0.08;54.87;101415.31;5112032;28;20039;-74
2022/01/23 10:02:24;;;;;;;8.55;3.28;;;;;;;0.12;54.36;101425.81;5091754;28;20040;-71
2022/01/23 10:04:53;;;;;;;4.53;2.40;;;;;;;0.07;55.08;101424.94;5091334;28;20036;-72
2022/01/23 10:07:22;;;;;;;8.65;3.50;;;;;;;0.27;54.33;101435.44;5092106;28;20131;-72
2022/01/23 10:09:56;;;;;;;11.68;3.90;;;;;;;0.19;54.81;101431.94;5094727;28;20075;-72
2022/01/23 10:12:26;;;;;;;;;;;;;;;0.23;54.34;101442.44;5078397;28;20048;-72
2022/01/23 10:14:55;;;;;;;6.35;3.13;;;;;;;0.25;54.39;101434.56;5095926;28;19920;-73
2022/01/23 10:17:23;;;;;;;6.45;2.75;;;;;;;0.35;54.23;101438.97;5095962;28;20051;-72
2022/01/23 10:19:52;;;;;;;6.25;3.08;;;;;;;0.36;53.72;101432.81;5102133;28;20073;-70
2022/01/23 10:22:22;;;;;;;7.88;3.60;;;;;;;0.37;53.86;101424.06;5116132;28;20135;-69
2022/01/23 10:24:50;;;;;;;7.68;3.17;;;;;;;0.38;54.11;101419.69;5115853;28;20112;-70
2022/01/23 10:27:21;;;;;;;8.63;3.50;;;;;;;0.47;54.36;101420.56;5115865;28;20043;-71
2022/01/23 10:29:51;;;;;;;9.20;3.80;;;;;;;0.53;54.56;101425.84;5115266;28;20048;-70
2022/01/23 10:32:21;;;;;;;8.02;3.75;;;;;;;0.56;53.55;101419.69;5115542;28;20052;-69
2022/01/23 10:34:54;;;;;;;7.90;3.78;;;;;;;0.63;54.10;101425.84;5115146;28;20561;-68
2022/01/23 10:37:32;;;;;;;8.98;3.95;;;;;;;0.59;53.63;101409.22;5115987;28;20046;-70
2022/01/23 10:40:11;;;;;;;11.18;3.30;;;;;;;0.59;53.66;101409.22;5115448;28;20040;-69
2022/01/23 10:42:55;;;;;;;8.68;3.58;;;;;;;0.52;54.13;101415.34;5115621;28;20400;-69
2022/01/23 10:48:38;;;;;;;8.73;3.45;;;;;;;0.66;54.01;101410.06;5115391;28;20461;-70
2022/01/23 10:51:22;;;;;;;7.97;3.28;;;;;;;0.76;54.14;101417.06;5109044;28;20051;-74
2022/01/23 10:53:58;;;;;;;;;;;;;;;0.63;54.34;101420.56;5094992;28;20457;-72
2022/01/23 10:56:30;;;;;;;8.43;3.63;;;;;;;0.63;53.80;101410.06;5100190;28;19926;-70
2022/01/23 10:59:02;;;;;;;11.35;3.53;;;;;;;0.50;54.59;101404.84;5114572;28;20484;-71
2022/01/23 11:01:32;;;;;;;7.72;3.30;;;;;;;0.47;54.22;101406.56;5114593;28;20597;-70
2022/01/23 11:04:10;;;;;;;8.68;3.80;;;;;;;0.52;54.44;101417.97;5114252;28;20935;-70
2022/01/23 11:06:53;;;;;;;7.85;3.70;;;;;;;0.46;54.86;101408.31;5114710;28;20469;-70
2022/01/23 11:09:27;;;;;;;8.93;3.80;;;;;;;0.62;53.90;101409.19;5114229;28;20039;-72
2022/01/23 11:12:02;;;;;;;10.88;3.53;;;;;;;0.55;53.93;101415.31;5113954;28;20126;-71
2022/01/23 11:17:22;;;;;;;8.32;3.72;;;;;;;0.46;54.54;101403.06;5114143;28;20511;-74
2022/01/23 11:19:54;;;;;;;9.32;3.67;;;;;;;0.45;53.99;101414.47;5112988;28;20065;-72
2022/01/23 11:22:25;;;;;;;8.02;3.42;;;;;;;0.39;54.18;101409.22;5114303;28;20468;-72
2022/01/23 11:24:58;;;;;;;8.43;3.85;;;;;;;0.42;54.31;101410.97;5114084;28;20388;-73
2022/01/23 11:27:34;;;;;;;7.25;3.35;;;;;;;0.37;54.25;101408.31;5113896;28;20605;-72
2022/01/23 11:30:08;;;;;;;10.13;3.50;;;;;;;0.33;54.89;101406.59;5113347;28;20046;-72
2022/01/23 11:32:41;;;;;;;8.07;3.60;;;;;;;0.28;54.66;101411.81;5113487;28;20079;-73
2022/01/23 11:35:12;;;;;;;8.02;3.60;;;;;;;0.23;54.38;101397.84;5113736;28;20045;-72
2022/01/23 11:37:47;;;;;;;8.00;3.20;;;;;;;0.30;54.99;101406.59;5113786;28;20126;-71
2022/01/23 11:54:17;;;;;;;8.40;3.45;;;;;;;0.26;54.87;101395.22;5113505;28;20035;-70
2022/01/23 11:56:47;;;;;;;7.63;3.60;;;;;;;0.33;54.67;101393.47;5113159;28;20063;-71
2022/01/23 11:59:28;;;;;;;7.60;3.58;;;;;;;0.29;54.85;101389.09;5113072;28;20047;-72
2022/01/23 12:02:39;;;;;;;8.27;3.45;;;;;;;0.33;54.67;101385.59;5112627;28;20092;-75
2022/01/23 12:05:33;;;;;;;11.82;4.05;;;;;;;0.35;54.79;101380.34;5112986;28;20067;-70
2022/01/23 12:08:36;;;;;;;13.10;3.88;;;;;;;0.40;55.19;101384.72;5112879;28;20067;-70
2022/01/23 12:17:24;;;;;;;8.02;3.70;;;;;;;0.51;53.93;101390.84;5112840;28;20051;-70
2022/01/23 12:19:57;;;;;;;9.48;3.67;;;;;;;0.57;53.46;101384.69;5112860;28;20063;-74
2022/01/23 12:22:36;;;;;;;9.63;3.63;;;;;;;0.60;53.41;101394.34;5113337;28;20069;-71
2022/01/23 12:25:39;;;;;;;7.55;3.78;;;;;;;0.57;54.03;101379.44;5112435;28;20079;-70
2022/01/23 12:28:14;;;;;;;8.38;3.50;;;;;;;0.60;53.41;101373.31;5111246;28;20442;-71
2022/01/23 12:30:45;;;;;;;7.88;3.55;;;;;;;0.64;52.96;101369.81;5112243;28;20059;-71
2022/01/23 12:33:46;;;;;;;7.45;3.78;;;;;;;0.74;52.98;101372.41;5111541;28;20040;-74
2022/01/23 12:36:31;;;;;;;7.10;3.40;;;;;;;0.90;52.15;101377.63;5112626;28;20048;-71
2022/01/23 12:39:18;;;;;;;7.55;3.63;;;;;;;0.89;51.93;101370.63;5111201;27;20058;-70
2022/01/23 12:41:59;;;;;;;10.35;3.70;;;;;;;0.81;52.85;101368.03;5112544;28;20075;-70
2022/01/23 12:44:36;;;;;;;9.73;4.03;;;;;;;0.88;53.25;101359.25;5112548;28;20040;-71
2022/01/23 12:47:07;;;;;;;8.25;3.55;;;;;;;0.85;52.75;101364.50;5112592;28;20404;-68
2022/01/23 12:49:47;;;;;;;8.93;3.92;;;;;;;0.98;53.78;101362.72;5111734;28;20039;-70
2022/01/23 12:52:19;;;;;;;10.68;4.07;;;;;;;0.94;54.37;101366.22;5112219;28;20040;-73
2022/01/23 12:54:56;;;;;;;8.90;3.73;;;;;;;1.10;53.07;101358.31;5112473;28;20039;-69
2022/01/23 12:57:35;;;;;;;10.70;3.63;;;;;;;1.02;52.96;101356.56;5111786;28;20553;-70
2022/01/23 13:00:11;;;;;;;10.40;3.80;;;;;;;1.08;52.80;101362.69;5112689;28;20139;-68
2022/01/23 13:02:45;;;;;;;9.38;3.35;;;;;;;1.09;54.55;101359.19;5112537;28;20035;-69
2022/01/23 13:05:16;;;;;;;7.30;3.25;;;;;;;1.09;53.97;101364.44;5112145;28;20096;-68
2022/01/23 13:08:01;;;;;;;11.05;4.18;;;;;;;1.05;53.22;101362.69;5112348;28;20044;-69
2022/01/23 13:10:54;;;;;;;10.15;3.75;;;;;;;1.16;53.33;101367.94;5111708;28;20044;-69
2022/01/23 13:13:35;;;;;;;8.73;3.92;;;;;;;1.17;53.19;101367.03;5112390;28;20044;-75
2022/01/23 13:16:25;;;;;;;11.43;4.35;;;;;;;1.20;53.58;101366.16;5112506;28;20046;-71
2022/01/23 13:30:30;;;;;;;6.40;2.40;;;;;;;1.41;51.96;101379.19;5016095;28;20127;-69
2022/01/23 13:33:04;;;;;;;9.77;3.50;;;;;;;1.39;51.89;101367.81;5079933;28;20078;-70
2022/01/23 13:35:41;;;;;;;7.82;3.53;;;;;;;1.37;51.51;101366.94;5112361;28;20039;-75
2022/01/23 13:38:20;;;;;;;9.43;3.97;;;;;;;1.35;51.98;101376.56;5111287;28;20059;-71
2022/01/23 13:40:58;;;;;;;8.05;3.42;;;;;;;1.45;51.80;101367.78;5112201;28;20148;-70
2022/01/23 13:51:57;;;;;;;6.65;3.70;;;;;;;1.48;51.96;101380.03;5111767;28;20523;-73
2022/01/23 14:00:07;;;;;;;7.25;3.60;;;;;;;1.49;52.24;101387.03;5111548;28;20043;-71
2022/01/23 14:02:40;;;;;;;8.82;3.47;;;;;;;1.46;52.34;101380.06;5111917;28;20469;-71
2022/01/23 14:05:11;;;;;;;9.00;4.45;;;;;;;1.42;52.19;101381.81;5112303;28;20044;-71
2022/01/23 14:07:42;;;;;;;10.60;3.78;;;;;;;1.41;52.44;101387.06;5112053;28;20100;-70
2022/01/23 14:10:15;;;;;;;8.45;3.92;;;;;;;1.43;52.25;101390.56;5112176;28;20040;-71
2022/01/23 14:12:44;;;;;;;9.60;4.00;;;;;;;1.43;52.12;101387.94;5111703;28;20051;-71
2022/01/23 14:15:22;;;;;;;10.85;3.65;;;;;;;1.46;51.76;101379.19;5112514;28;20276;-71
2022/01/23 14:18:00;;;;;;;7.28;3.38;;;;;;;1.40;51.98;101383.56;5111402;28;20051;-70
2022/01/23 14:20:31;;;;;;;9.63;3.90;;;;;;;1.44;52.15;101387.06;5111676;28;20099;-71
2022/01/23 14:23:12;;;;;;;8.20;4.30;;;;;;;1.40;52.52;101393.22;5111696;28;20044;-69
2022/01/23 14:25:49;;;;;;;10.30;4.30;;;;;;;1.35;52.65;101387.09;5111992;28;20047;-71
2022/01/23 14:28:20;;;;;;;9.43;4.05;;;;;;;1.51;52.10;101396.66;5111857;28;20111;-72
2022/01/23 14:30:53;;;;;;;8.23;3.97;;;;;;;1.48;52.18;101399.31;5111481;28;20056;-71
2022/01/23 14:33:25;;;;;;;9.30;4.30;;;;;;;1.46;52.25;101387.94;5111911;28;20042;-70
2022/01/23 14:36:13;;;;;;;9.27;3.90;;;;;;;1.46;52.90;101401.09;5111793;28;20054;-70
2022/01/23 14:38:54;;;;;;;11.00;4.15;;;;;;;1.42;52.47;101396.72;5112058;28;20063;-71